createdAt,value
2022-09-03T00:02:46.376Z,17.6
2022-09-03T00:07:46.248Z,17.5
2022-09-03T00:12:46.247Z,17.5
2022-09-03T00:17:46.254Z,17.4
2022-09-03T00:22:46.257Z,17.4
2022-09-03T00:27:46.259Z,17.3
2022-09-03T00:32:46.260Z,17.3
2022-09-03T00:37:46.275Z,17.2
2022-09-03T00:42:46.257Z,17.2
2022-09-03T00:47:46.265Z,17.2
2022-09-03T00:52:46.259Z,17.1
2022-09-03T00:57:47.709Z,17.1
2022-09-03T01:02:46.436Z,17.1
2022-09-03T01:07:46.276Z,17.0
2022-09-03T01:12:46.267Z,17.0
2022-09-03T01:17:46.270Z,17.0
2022-09-03T01:22:46.269Z,16.9
2022-09-03T01:27:46.272Z,16.9
2022-09-03T01:32:46.276Z,16.8
2022-09-03T01:37:46.272Z,16.7
2022-09-03T01:42:46.279Z,16.7
2022-09-03T01:47:46.277Z,16.6
2022-09-03T01:52:46.283Z,16.6
2022-09-03T01:57:46.283Z,16.6
2022-09-03T02:02:46.333Z,16.6
2022-09-03T02:07:46.285Z,16.5
2022-09-03T02:12:46.279Z,16.5
2022-09-03T02:17:46.304Z,16.4
2022-09-03T02:22:46.292Z,16.3
2022-09-03T02:27:46.288Z,16.3
2022-09-03T02:32:46.295Z,16.3
2022-09-03T02:37:46.289Z,16.2
2022-09-03T02:42:46.295Z,16.2
2022-09-03T02:47:46.299Z,16.2
2022-09-03T02:52:46.300Z,16.2
2022-09-03T02:57:46.296Z,16.1
2022-09-03T03:02:46.350Z,16.1
2022-09-03T03:07:46.303Z,16.0
2022-09-03T03:12:46.307Z,16.0
2022-09-03T03:17:46.308Z,15.9
2022-09-03T03:22:46.307Z,15.9
2022-09-03T03:27:46.308Z,15.9
2022-09-03T03:32:46.310Z,15.8
2022-09-03T03:37:46.315Z,15.8
2022-09-03T03:42:46.311Z,15.7
2022-09-03T03:47:46.313Z,15.7
2022-09-03T03:52:46.315Z,15.6
2022-09-03T03:57:46.316Z,15.6
2022-09-03T04:02:46.388Z,15.6
2022-09-03T04:07:46.335Z,15.5
2022-09-03T04:12:46.319Z,15.5
2022-09-03T04:17:46.325Z,15.5
2022-09-03T04:22:49.097Z,15.4
2022-09-03T04:27:46.322Z,15.4
2022-09-03T04:32:46.337Z,15.3
2022-09-03T04:37:46.341Z,15.3
2022-09-03T04:42:46.339Z,15.3
2022-09-03T04:47:46.332Z,15.2
2022-09-03T04:52:46.335Z,15.2
2022-09-03T04:57:46.344Z,15.2
2022-09-03T05:02:46.332Z,15.2
2022-09-03T05:07:46.334Z,15.2
2022-09-03T05:12:46.332Z,15.2
2022-09-03T05:17:46.342Z,15.2
2022-09-03T05:22:46.343Z,15.2
2022-09-03T05:27:46.347Z,15.3
2022-09-03T05:32:46.342Z,15.3
2022-09-03T05:37:46.344Z,15.3
2022-09-03T05:42:46.351Z,15.3
2022-09-03T05:47:46.350Z,15.4
2022-09-03T05:52:46.363Z,15.5
2022-09-03T05:57:46.356Z,15.5
2022-09-03T06:02:46.451Z,15.6
2022-09-03T06:07:46.355Z,15.8
2022-09-03T06:12:47.397Z,15.9
2022-09-03T06:17:46.360Z,16.1
2022-09-03T06:22:46.367Z,16.3
2022-09-03T06:27:46.367Z,16.6
2022-09-03T06:32:46.378Z,16.9
2022-09-03T06:37:46.378Z,17.2
2022-09-03T06:42:46.381Z,17.6
2022-09-03T06:47:46.385Z,18.0
2022-09-03T06:52:46.391Z,18.5
2022-09-03T06:57:46.392Z,18.9
2022-09-03T07:02:46.394Z,19.3
2022-09-03T07:07:46.411Z,19.7
2022-09-03T07:12:46.482Z,20.1
2022-09-03T07:17:46.424Z,20.4
2022-09-03T07:22:46.408Z,20.7
2022-09-03T07:27:46.423Z,21.0
2022-09-03T07:32:46.412Z,21.3
2022-09-03T07:37:46.419Z,21.6
2022-09-03T07:42:46.422Z,21.7
2022-09-03T07:47:46.427Z,22.0
2022-09-03T07:52:46.430Z,22.2
2022-09-03T07:57:46.432Z,22.5
2022-09-03T08:02:46.630Z,22.6
2022-09-03T08:07:46.448Z,22.7
2022-09-03T08:12:46.439Z,22.9
2022-09-03T08:17:46.449Z,23.1
2022-09-03T08:22:46.449Z,23.3
2022-09-03T08:27:46.473Z,23.4
2022-09-03T08:32:46.514Z,23.5
2022-09-03T08:37:46.453Z,23.5
2022-09-03T08:42:46.464Z,23.7
2022-09-03T08:47:46.462Z,24.0
2022-09-03T08:52:46.468Z,24.1
2022-09-03T08:57:46.462Z,24.5
2022-09-03T09:02:46.492Z,24.6
2022-09-03T09:07:46.472Z,24.8
2022-09-03T09:12:47.075Z,24.9
2022-09-03T09:17:46.491Z,25.0
2022-09-03T09:22:47.202Z,25.1
2022-09-03T09:27:46.485Z,25.3
2022-09-03T09:32:46.489Z,25.5
2022-09-03T09:37:46.487Z,25.7
2022-09-03T09:42:46.497Z,25.8
2022-09-03T09:47:46.497Z,25.9
2022-09-03T09:52:46.498Z,26.0
2022-09-03T09:57:46.502Z,26.1
2022-09-03T10:02:46.534Z,26.2
2022-09-03T10:07:46.528Z,26.3
2022-09-03T10:12:46.505Z,26.3
2022-09-03T10:17:46.506Z,26.4
2022-09-03T10:22:56.567Z,26.4
2022-09-03T10:27:46.515Z,26.4
2022-09-03T10:32:48.553Z,26.5
2022-09-03T10:37:46.528Z,26.7
2022-09-03T10:42:46.529Z,26.8
2022-09-03T10:47:46.536Z,27.1
2022-09-03T10:52:46.534Z,27.3
2022-09-03T10:57:46.530Z,27.4
2022-09-03T11:02:46.583Z,27.5
2022-09-03T11:07:46.537Z,27.6
2022-09-03T11:12:46.537Z,27.7
2022-09-03T11:17:46.546Z,27.8
2022-09-03T11:22:46.547Z,28.1
2022-09-03T11:27:46.549Z,28.1
2022-09-03T11:32:46.542Z,28.1
2022-09-03T11:37:46.551Z,28.0
2022-09-03T11:42:46.550Z,28.0
2022-09-03T11:47:46.569Z,28.1
2022-09-03T11:52:46.559Z,28.1
2022-09-03T11:57:46.560Z,28.2
2022-09-03T12:02:46.643Z,28.2
2022-09-03T12:07:46.577Z,28.4
2022-09-03T12:12:46.564Z,28.6
2022-09-03T12:17:46.571Z,28.7
2022-09-03T12:22:46.600Z,28.7
2022-09-03T12:27:46.577Z,28.7
2022-09-03T12:32:46.577Z,28.7
2022-09-03T12:42:46.579Z,28.5
2022-09-03T12:47:46.641Z,28.6
2022-09-03T12:52:46.592Z,28.7
2022-09-03T12:57:46.590Z,28.8
2022-09-03T13:02:46.593Z,29.0
2022-09-03T13:07:46.600Z,29.2
2022-09-03T13:12:51.034Z,29.4
2022-09-03T13:17:46.611Z,29.6
2022-09-03T13:22:46.602Z,29.3
2022-09-03T13:27:46.605Z,29.4
2022-09-03T13:32:46.611Z,29.7
2022-09-03T13:37:46.513Z,29.7
2022-09-03T13:42:46.614Z,29.9
2022-09-03T13:47:46.613Z,29.9
2022-09-03T13:52:46.617Z,29.8
2022-09-03T13:57:46.617Z,29.9
2022-09-03T14:02:46.690Z,30.2
2022-09-03T14:07:46.539Z,30.4
2022-09-03T14:12:46.633Z,30.6
2022-09-03T14:17:46.543Z,30.7
2022-09-03T14:22:46.528Z,31.0
2022-09-03T14:27:46.531Z,31.0
2022-09-03T14:32:46.539Z,31.1
2022-09-03T14:37:46.555Z,31.1
2022-09-03T14:42:46.547Z,31.1
2022-09-03T14:47:46.544Z,31.0
2022-09-03T14:52:46.544Z,31.1
2022-09-03T14:57:46.551Z,31.4
2022-09-03T15:02:46.551Z,31.6
2022-09-03T15:07:46.551Z,31.4
2022-09-03T15:12:46.569Z,31.5
2022-09-03T15:17:46.563Z,31.7
2022-09-03T15:22:49.933Z,31.8
2022-09-03T15:27:46.584Z,31.7
2022-09-03T15:32:46.576Z,31.8
2022-09-03T15:37:46.565Z,31.8
2022-09-03T15:42:46.563Z,32.1
2022-09-03T15:47:46.575Z,32.2
2022-09-03T15:52:46.577Z,32.0
2022-09-03T15:57:46.577Z,31.9
2022-09-03T16:02:46.576Z,32.0
2022-09-03T16:07:46.580Z,32.0
2022-09-03T16:12:46.597Z,31.8
2022-09-03T16:17:46.585Z,31.7
2022-09-03T16:22:46.583Z,31.5
2022-09-03T16:27:46.586Z,31.5
2022-09-03T16:32:46.592Z,31.4
2022-09-03T16:37:46.592Z,31.3
2022-09-03T16:42:46.589Z,31.2
2022-09-03T16:47:46.596Z,31.1
2022-09-03T16:52:46.594Z,31.0
2022-09-03T16:57:46.598Z,30.8
2022-09-03T17:02:46.657Z,30.4
2022-09-03T17:07:46.700Z,30.1
2022-09-03T17:12:46.694Z,29.8
2022-09-03T17:17:46.695Z,29.5
2022-09-03T17:22:46.738Z,29.2
2022-09-03T17:27:46.703Z,28.8
2022-09-03T17:32:46.702Z,28.6
2022-09-03T17:37:46.716Z,28.3
2022-09-03T17:42:46.703Z,28.1
2022-09-03T17:47:46.711Z,27.8
2022-09-03T17:52:46.709Z,27.6
2022-09-03T17:57:46.710Z,27.3
2022-09-03T18:02:46.707Z,27.1
2022-09-03T18:07:46.705Z,26.9
2022-09-03T18:13:02.982Z,26.6
2022-09-03T18:17:46.705Z,26.3
2022-09-03T18:22:46.712Z,25.9
2022-09-03T18:27:46.712Z,25.7
2022-09-03T18:32:46.710Z,25.4
2022-09-03T18:37:46.712Z,25.2
2022-09-03T18:42:46.714Z,24.8
2022-09-03T18:52:46.717Z,24.2
2022-09-03T18:57:46.713Z,23.9
2022-09-03T19:02:46.870Z,23.8
2022-09-03T19:07:46.712Z,23.6
2022-09-03T19:12:50.067Z,23.4
2022-09-03T19:17:46.717Z,23.2
2022-09-03T19:22:46.718Z,23.1
2022-09-03T19:27:55.737Z,23.0
2022-09-03T19:32:46.715Z,22.8
2022-09-03T19:37:46.726Z,22.7
2022-09-03T19:42:46.724Z,22.5
2022-09-03T19:47:46.719Z,22.3
2022-09-03T19:52:46.724Z,22.2
2022-09-03T19:57:46.727Z,22.0
2022-09-03T20:02:46.795Z,21.8
2022-09-03T20:07:46.742Z,21.7
2022-09-03T20:12:46.729Z,21.6
2022-09-03T20:17:46.726Z,21.4
2022-09-03T20:22:47.336Z,21.4
2022-09-03T20:27:46.729Z,21.2
2022-09-03T20:32:46.738Z,21.1
2022-09-03T20:37:46.750Z,21.0
2022-09-03T20:42:46.737Z,20.9
2022-09-03T20:47:46.739Z,20.7
2022-09-03T20:52:46.741Z,20.7
2022-09-03T20:57:46.742Z,20.7
2022-09-03T21:02:48.506Z,20.6
2022-09-03T21:07:46.745Z,20.4
2022-09-03T21:12:46.756Z,20.2
2022-09-03T21:17:46.753Z,20.1
2022-09-03T21:22:46.745Z,20.1
2022-09-03T21:27:46.745Z,20.2
2022-09-03T21:32:46.752Z,20.2
2022-09-03T21:37:46.755Z,20.2
2022-09-03T21:42:46.753Z,20.2
2022-09-03T21:47:46.757Z,20.3
2022-09-03T21:52:46.770Z,20.3
2022-09-03T21:57:46.758Z,20.4
2022-09-03T22:02:46.857Z,20.3
2022-09-03T22:07:46.760Z,20.4
2022-09-03T22:12:46.763Z,20.4
2022-09-03T22:17:46.768Z,20.4
2022-09-03T22:22:46.768Z,20.3
2022-09-03T22:27:46.776Z,20.3
2022-09-03T22:32:46.775Z,20.3
2022-09-03T22:37:46.769Z,20.2
2022-09-03T22:42:46.780Z,20.1
2022-09-03T22:47:46.775Z,20.0
2022-09-03T22:52:46.785Z,19.9
2022-09-03T22:57:46.779Z,19.7
2022-09-03T23:02:46.785Z,19.6
2022-09-03T23:07:46.789Z,19.5
2022-09-03T23:12:46.786Z,19.4
2022-09-03T23:17:47.054Z,19.3
2022-09-03T23:22:46.966Z,19.3
2022-09-03T23:27:46.789Z,19.2
2022-09-03T23:32:46.785Z,19.1
2022-09-03T23:37:46.783Z,19.0
2022-09-03T23:42:46.790Z,18.9
2022-09-03T23:47:46.790Z,18.8
2022-09-03T23:52:46.787Z,18.8
2022-09-03T23:57:46.809Z,18.7
